createdAt,value
2018-01-26T00:00:02.904Z,59.50
2018-01-26T00:02:30.533Z,59.20
2018-01-26T00:04:58.112Z,60.57
2018-01-26T00:07:25.878Z,57.83
2018-01-26T00:09:53.552Z,46.20
2018-01-26T00:12:21.112Z,54.90
2018-01-26T00:14:49.061Z,70.63
2018-01-26T00:17:16.742Z,61.83
2018-01-26T00:19:47.729Z,61.37
2018-01-26T00:22:18.937Z,56.80
2018-01-26T00:24:46.723Z,71.60
2018-01-26T00:27:14.299Z,52.37
2018-01-26T00:29:41.906Z,46.70
2018-01-26T00:32:09.654Z,50.90
2018-01-26T00:34:37.230Z,57.40
2018-01-26T00:37:04.987Z,83.63
2018-01-26T00:39:32.555Z,73.30
2018-01-26T00:42:00.512Z,74.60
2018-01-26T00:44:28.103Z,86.87
2018-01-26T00:46:55.678Z,92.20
2018-01-26T00:49:23.582Z,62.43
2018-01-26T00:51:51.187Z,66.97
2018-01-26T00:54:18.759Z,69.93
2018-01-26T00:56:46.341Z,86.37
2018-01-26T00:59:13.958Z,122.63
2018-01-26T01:01:41.618Z,74.90
2018-01-26T01:04:09.461Z,44.73
2018-01-26T01:06:37.066Z,73.60
2018-01-26T01:09:04.717Z,81.27
2018-01-26T01:11:32.285Z,79.27
2018-01-26T01:13:59.886Z,81.70
2018-01-26T01:16:27.597Z,93.10
2018-01-26T01:18:55.281Z,81.23
2018-01-26T01:21:23.109Z,78.90
2018-01-26T01:23:50.777Z,73.43
2018-01-26T01:26:18.362Z,76.10
2018-01-26T01:28:45.966Z,65.27
2018-01-26T01:31:13.531Z,72.73
2018-01-26T01:33:41.129Z,45.50
2018-01-26T01:36:08.908Z,58.93
2018-01-26T01:38:36.505Z,57.07
2018-01-26T01:41:04.204Z,49.80
2018-01-26T01:43:31.808Z,47.03
2018-01-26T01:45:59.385Z,51.73
2018-01-26T01:48:26.966Z,51.03
2018-01-26T01:50:54.572Z,39.07
2018-01-26T01:53:22.313Z,47.47
2018-01-26T01:55:49.877Z,56.20
2018-01-26T01:58:17.643Z,50.63
2018-01-26T02:00:45.280Z,42.73
2018-01-26T02:03:13.177Z,52.70
2018-01-26T02:05:41.237Z,48.37
2018-01-26T02:08:08.807Z,53.53
2018-01-26T02:10:36.389Z,53.80
2018-01-26T02:13:04.004Z,45.47
2018-01-26T02:15:31.596Z,46.60
2018-01-26T02:17:59.403Z,47.47
2018-01-26T02:20:27.220Z,46.73
2018-01-26T02:22:54.881Z,51.47
2018-01-26T02:25:22.460Z,44.00
2018-01-26T02:27:50.115Z,54.50
2018-01-26T02:30:17.703Z,47.00
2018-01-26T02:32:45.278Z,48.43
2018-01-26T02:35:12.899Z,51.93
2018-01-26T02:37:40.481Z,47.60
2018-01-26T02:40:08.066Z,46.53
2018-01-26T02:42:35.668Z,48.90
2018-01-26T02:45:03.237Z,56.40
2018-01-26T02:47:30.818Z,49.93
2018-01-26T02:49:58.421Z,47.97
2018-01-26T02:52:25.988Z,59.33
2018-01-26T02:54:53.568Z,53.47
2018-01-26T02:57:21.204Z,44.20
2018-01-26T02:59:48.782Z,72.37
2018-01-26T03:02:16.441Z,46.83
2018-01-26T03:04:44.043Z,46.53
2018-01-26T03:07:12.012Z,46.77
2018-01-26T03:09:39.591Z,49.00
2018-01-26T03:12:07.195Z,49.90
2018-01-26T03:14:34.765Z,53.93
2018-01-26T03:17:02.342Z,46.70
2018-01-26T03:19:30.170Z,46.60
2018-01-26T03:21:57.761Z,51.50
2018-01-26T03:24:25.391Z,61.83
2018-01-26T03:26:53.238Z,45.50
2018-01-26T03:29:20.791Z,45.50
2018-01-26T03:31:48.358Z,57.60
2018-01-26T03:34:15.955Z,41.13
2018-01-26T03:36:43.532Z,41.80
2018-01-26T03:39:11.144Z,48.43
2018-01-26T03:41:38.835Z,80.03
2018-01-26T03:44:06.512Z,43.67
2018-01-26T03:46:34.081Z,54.70
2018-01-26T03:49:01.832Z,42.17
2018-01-26T03:51:29.421Z,52.50
2018-01-26T03:53:56.996Z,56.87
2018-01-26T03:56:24.809Z,46.27
2018-01-26T03:58:52.378Z,58.63
2018-01-26T04:01:19.948Z,49.23
2018-01-26T04:03:47.552Z,54.20
2018-01-26T04:06:15.427Z,55.47
2018-01-26T04:08:43.032Z,45.60
2018-01-26T04:11:10.636Z,62.63
2018-01-26T04:13:38.204Z,51.80
2018-01-26T04:16:05.774Z,48.67
2018-01-26T04:18:33.386Z,59.73
2018-01-26T04:21:00.966Z,56.90
2018-01-26T04:23:28.531Z,39.00
2018-01-26T04:25:56.344Z,44.10
2018-01-26T04:28:24.003Z,40.03
2018-01-26T04:30:51.670Z,51.17
2018-01-26T04:33:19.291Z,44.27
2018-01-26T04:35:46.925Z,37.93
2018-01-26T04:38:14.668Z,45.30
2018-01-26T04:40:42.265Z,45.73
2018-01-26T04:43:09.828Z,51.73
2018-01-26T04:45:37.394Z,48.20
2018-01-26T04:48:05.012Z,54.00
2018-01-26T04:50:32.596Z,44.13
2018-01-26T04:53:00.212Z,35.50
2018-01-26T04:55:27.829Z,48.13
2018-01-26T04:57:55.536Z,38.97
2018-01-26T05:00:23.098Z,44.23
2018-01-26T05:02:50.878Z,59.50
2018-01-26T05:05:18.751Z,64.17
2018-01-26T05:07:46.611Z,50.83
2018-01-26T05:10:14.250Z,49.77
2018-01-26T05:12:41.915Z,51.97
2018-01-26T05:15:09.505Z,48.40
2018-01-26T05:17:37.494Z,59.97
2018-01-26T05:20:05.084Z,53.83
2018-01-26T05:22:32.688Z,54.67
2018-01-26T05:25:00.295Z,42.53
2018-01-26T05:27:27.879Z,43.50
2018-01-26T05:29:55.466Z,44.23
2018-01-26T05:32:23.083Z,53.83
2018-01-26T05:34:50.672Z,68.63
2018-01-26T05:37:18.535Z,87.57
2018-01-26T05:39:46.142Z,72.03
2018-01-26T05:42:13.709Z,70.37
2018-01-26T05:44:41.286Z,70.87
2018-01-26T05:47:08.903Z,65.70
2018-01-26T05:49:36.476Z,54.03
2018-01-26T05:52:04.035Z,75.20
2018-01-26T05:54:31.646Z,54.30
2018-01-26T05:56:59.233Z,71.03
2018-01-26T05:59:26.806Z,76.20
2018-01-26T06:01:54.407Z,73.43
2018-01-26T06:04:21.982Z,68.27
2018-01-26T06:06:49.549Z,58.93
2018-01-26T06:09:17.151Z,67.10
2018-01-26T06:11:44.717Z,82.60
2018-01-26T06:14:12.454Z,50.87
2018-01-26T06:16:40.056Z,62.13
2018-01-26T06:19:07.798Z,62.27
2018-01-26T06:21:35.372Z,91.17
2018-01-26T06:24:03.303Z,66.53
2018-01-26T06:26:30.883Z,63.00
2018-01-26T06:28:58.484Z,65.37
2018-01-26T06:31:26.144Z,64.10
2018-01-26T06:33:53.745Z,96.70
2018-01-26T06:36:21.318Z,56.57
2018-01-26T06:38:48.925Z,57.47
2018-01-26T06:41:16.499Z,74.30
2018-01-26T06:43:44.190Z,52.87
2018-01-26T06:46:11.800Z,55.10
2018-01-26T06:48:39.384Z,106.50
2018-01-26T06:51:06.971Z,62.40
2018-01-26T06:53:34.598Z,77.13
2018-01-26T06:56:02.165Z,94.47
2018-01-26T06:58:29.737Z,96.50
2018-01-26T07:00:57.418Z,91.80
2018-01-26T07:03:24.996Z,88.30
2018-01-26T07:05:52.558Z,97.00
2018-01-26T07:08:20.142Z,91.63
2018-01-26T07:10:47.881Z,69.63
2018-01-26T07:13:15.527Z,54.17
2018-01-26T07:15:43.184Z,69.53
2018-01-26T07:18:10.855Z,57.17
2018-01-26T07:20:38.425Z,62.93
2018-01-26T07:23:06.044Z,56.60
2018-01-26T07:25:33.857Z,60.40
2018-01-26T07:28:01.431Z,65.80
2018-01-26T07:30:29.182Z,67.37
2018-01-26T07:32:56.819Z,65.67
2018-01-26T07:35:24.505Z,91.80
2018-01-26T07:37:52.360Z,48.03
2018-01-26T07:40:19.932Z,50.03
2018-01-26T07:42:47.492Z,40.23
2018-01-26T07:45:15.079Z,41.53
2018-01-26T07:47:42.812Z,40.70
2018-01-26T07:50:10.419Z,42.73
2018-01-26T07:52:38.024Z,53.93
2018-01-26T07:55:05.592Z,52.10
2018-01-26T07:57:33.162Z,73.17
2018-01-26T08:00:00.771Z,57.80
2018-01-26T08:02:28.349Z,56.50
2018-01-26T08:04:56.018Z,63.93
2018-01-26T08:07:23.883Z,54.03
2018-01-26T08:09:51.509Z,69.50
2018-01-26T08:12:19.089Z,59.37
2018-01-26T08:14:46.683Z,76.80
2018-01-26T08:17:14.250Z,106.57
2018-01-26T08:19:41.838Z,118.57
2018-01-26T08:22:09.443Z,99.70
2018-01-26T08:24:37.034Z,142.43
2018-01-26T08:27:04.614Z,155.97
2018-01-26T08:29:32.219Z,115.87
2018-01-26T08:31:59.832Z,111.00
2018-01-26T08:34:27.392Z,92.03
2018-01-26T08:36:55.039Z,70.63
2018-01-26T08:39:22.700Z,74.27
2018-01-26T08:41:50.267Z,72.33
2018-01-26T08:44:18.030Z,86.47
2018-01-26T08:46:45.590Z,68.33
2018-01-26T08:49:13.329Z,64.67
2018-01-26T08:51:40.962Z,70.97
2018-01-26T08:54:08.552Z,64.00
2018-01-26T08:56:36.325Z,71.17
2018-01-26T08:59:03.914Z,54.50
2018-01-26T09:01:31.645Z,59.73
2018-01-26T09:03:59.210Z,56.00
2018-01-26T09:06:26.818Z,62.73
2018-01-26T09:08:54.409Z,50.23
2018-01-26T09:11:21.968Z,73.03
2018-01-26T09:13:49.751Z,66.70
2018-01-26T09:16:17.413Z,100.20
2018-01-26T09:18:45.000Z,76.10
2018-01-26T09:21:12.624Z,79.30
2018-01-26T09:23:40.236Z,75.70
2018-01-26T09:26:07.825Z,73.27
2018-01-26T09:28:35.440Z,77.23
2018-01-26T09:31:03.022Z,75.67
2018-01-26T09:33:30.629Z,73.80
2018-01-26T09:35:58.248Z,78.23
2018-01-26T09:38:25.837Z,91.00
2018-01-26T09:40:53.424Z,91.77
2018-01-26T09:43:21.078Z,97.27
2018-01-26T09:45:48.660Z,84.27
2018-01-26T09:48:16.235Z,85.20
2018-01-26T09:50:43.869Z,90.43
2018-01-26T09:53:11.525Z,93.77
2018-01-26T09:55:39.187Z,93.87
2018-01-26T09:58:06.797Z,123.43
2018-01-26T10:00:34.398Z,82.97
2018-01-26T10:03:02.013Z,117.47
2018-01-26T10:05:29.736Z,110.73
2018-01-26T10:07:57.332Z,104.90
2018-01-26T10:10:24.917Z,151.33
2018-01-26T10:12:52.529Z,116.67
2018-01-26T10:15:20.092Z,113.43
2018-01-26T10:17:47.673Z,109.53
2018-01-26T10:20:15.284Z,140.80
2018-01-26T10:22:43.078Z,136.63
2018-01-26T10:25:10.722Z,114.43
2018-01-26T10:27:38.508Z,111.33
2018-01-26T10:30:06.085Z,122.20
2018-01-26T10:32:33.722Z,116.80
2018-01-26T10:35:01.342Z,103.13
2018-01-26T10:37:28.923Z,124.07
2018-01-26T10:39:56.500Z,135.43
2018-01-26T10:42:24.124Z,102.50
2018-01-26T10:44:51.703Z,97.00
2018-01-26T10:47:19.316Z,84.93
2018-01-26T10:49:46.954Z,74.20
2018-01-26T10:52:14.534Z,73.63
2018-01-26T10:54:42.875Z,77.30
2018-01-26T10:57:10.529Z,52.33
2018-01-26T10:59:38.116Z,48.80
2018-01-26T11:02:05.710Z,52.53
2018-01-26T11:04:33.322Z,56.63
2018-01-26T11:07:00.894Z,41.33
2018-01-26T11:09:28.464Z,62.97
2018-01-26T11:11:56.071Z,52.80
2018-01-26T11:14:23.785Z,62.97
2018-01-26T11:16:51.409Z,63.47
2018-01-26T11:19:19.083Z,57.40
2018-01-26T11:21:47.231Z,52.87
2018-01-26T11:24:14.839Z,61.20
2018-01-26T11:26:42.701Z,64.80
2018-01-26T11:29:10.275Z,50.57
2018-01-26T11:31:37.834Z,50.37
2018-01-26T11:34:05.426Z,50.67
2018-01-26T11:36:33.005Z,71.33
2018-01-26T11:39:00.572Z,62.73
2018-01-26T11:41:28.169Z,57.13
2018-01-26T11:43:55.742Z,63.43
2018-01-26T11:46:23.432Z,82.47
2018-01-26T11:48:51.129Z,61.00
2018-01-26T11:51:18.693Z,75.83
2018-01-26T11:53:46.265Z,142.90
2018-01-26T11:56:13.852Z,79.47
2018-01-26T11:58:41.405Z,64.87
2018-01-26T12:01:09.000Z,124.13
2018-01-26T12:03:36.579Z,57.87
2018-01-26T12:06:04.134Z,40.73
2018-01-26T12:08:31.773Z,50.40
2018-01-26T12:10:59.367Z,59.37
2018-01-26T12:13:26.944Z,155.20
2018-01-26T12:15:54.514Z,105.40
2018-01-26T12:18:22.115Z,62.20
2018-01-26T12:20:49.683Z,43.93
2018-01-26T12:23:17.233Z,31.33
2018-01-26T12:25:44.876Z,30.67
2018-01-26T12:28:12.484Z,188.03
2018-01-26T12:30:40.088Z,152.77
2018-01-26T12:33:07.730Z,63.07
2018-01-26T12:35:35.302Z,48.13
2018-01-26T12:38:02.871Z,49.40
2018-01-26T12:40:30.459Z,38.63
2018-01-26T12:42:58.083Z,44.13
2018-01-26T12:45:25.660Z,41.77
2018-01-26T12:47:53.274Z,31.67
2018-01-26T12:50:20.822Z,48.23
2018-01-26T12:52:48.369Z,50.00
2018-01-26T12:55:15.970Z,37.60
2018-01-26T12:57:43.533Z,44.50
2018-01-26T13:00:11.189Z,30.73
2018-01-26T13:02:38.873Z,32.40
2018-01-26T13:05:06.463Z,42.53
2018-01-26T13:07:34.025Z,45.73
2018-01-26T13:10:01.651Z,67.97
2018-01-26T13:12:29.206Z,53.10
2018-01-26T13:14:56.835Z,53.93
2018-01-26T13:17:24.447Z,40.87
2018-01-26T13:19:52.002Z,39.97
2018-01-26T13:22:19.575Z,35.70
2018-01-26T13:24:47.171Z,40.83
2018-01-26T13:27:14.731Z,43.20
2018-01-26T13:29:42.291Z,101.63
2018-01-26T13:32:09.903Z,50.00
2018-01-26T13:34:37.650Z,44.07
2018-01-26T13:37:05.218Z,79.27
2018-01-26T13:39:32.825Z,58.23
2018-01-26T13:42:00.381Z,44.83
2018-01-26T13:44:27.952Z,41.53
2018-01-26T13:46:55.766Z,30.10
2018-01-26T13:49:23.344Z,56.03
2018-01-26T13:51:50.931Z,39.63
2018-01-26T13:54:18.530Z,53.50
2018-01-26T13:56:46.113Z,53.77
2018-01-26T13:59:13.717Z,45.50
2018-01-26T14:01:41.336Z,75.30
2018-01-26T14:04:09.032Z,62.63
2018-01-26T14:06:36.656Z,86.97
2018-01-26T14:09:04.323Z,61.50
2018-01-26T14:11:31.958Z,56.47
2018-01-26T14:13:59.567Z,53.57
2018-01-26T14:16:27.158Z,68.27
2018-01-26T14:18:54.716Z,58.53
2018-01-26T14:21:22.295Z,150.10
2018-01-26T14:23:49.887Z,122.27
2018-01-26T14:26:17.486Z,68.47
2018-01-26T14:28:45.204Z,55.77
2018-01-26T14:31:12.946Z,121.43
2018-01-26T14:33:40.521Z,53.23
2018-01-26T14:36:08.085Z,46.37
2018-01-26T14:38:35.685Z,66.70
2018-01-26T14:41:03.251Z,63.77
2018-01-26T14:43:30.804Z,50.70
2018-01-26T14:45:58.416Z,77.93
2018-01-26T14:48:26.000Z,57.57
2018-01-26T14:50:53.543Z,62.23
2018-01-26T14:53:21.124Z,61.07
2018-01-26T14:55:48.684Z,80.77
2018-01-26T14:58:16.289Z,93.80
2018-01-26T15:00:43.888Z,78.50
2018-01-26T15:03:11.458Z,88.37
2018-01-26T15:05:39.037Z,89.90
2018-01-26T15:08:06.754Z,85.80
2018-01-26T15:10:34.323Z,73.47
2018-01-26T15:13:01.905Z,105.50
2018-01-26T15:15:29.499Z,86.13
2018-01-26T15:17:57.067Z,236.90
2018-01-26T15:20:24.639Z,152.23
2018-01-26T15:22:52.322Z,113.27
2018-01-26T15:25:19.895Z,108.27
2018-01-26T15:27:47.442Z,93.17
2018-01-26T15:30:15.037Z,85.77
2018-01-26T15:32:42.703Z,74.43
2018-01-26T15:35:10.250Z,84.53
2018-01-26T15:37:37.865Z,69.57
2018-01-26T15:40:05.409Z,68.17
2018-01-26T15:42:32.964Z,54.40
2018-01-26T15:45:00.559Z,96.83
2018-01-26T15:47:28.123Z,69.30
2018-01-26T15:49:55.671Z,68.50
2018-01-26T15:52:23.300Z,98.93
2018-01-26T15:54:50.867Z,95.57
2018-01-26T15:57:18.414Z,92.53
2018-01-26T15:59:46.150Z,60.67
2018-01-26T16:02:13.702Z,54.00
2018-01-26T16:04:41.277Z,110.77
2018-01-26T16:07:08.877Z,72.27
2018-01-26T16:09:36.483Z,79.33
2018-01-26T16:12:04.085Z,91.87
2018-01-26T16:14:31.675Z,71.70
2018-01-26T16:16:59.238Z,75.83
2018-01-26T16:19:26.804Z,75.10
2018-01-26T16:21:54.399Z,79.77
2018-01-26T16:24:21.954Z,86.20
2018-01-26T16:26:49.501Z,86.97
2018-01-26T16:29:17.252Z,97.43
2018-01-26T16:31:44.797Z,81.80
2018-01-26T16:34:12.348Z,97.40
2018-01-26T16:36:39.931Z,74.83
2018-01-26T16:39:07.505Z,75.97
2018-01-26T16:41:35.107Z,90.93
2018-01-26T16:44:02.727Z,69.40
2018-01-26T16:46:30.298Z,93.90
2018-01-26T16:48:57.886Z,91.00
2018-01-26T16:51:25.483Z,98.13
2018-01-26T16:53:53.055Z,66.90
2018-01-26T16:56:20.617Z,63.73
2018-01-26T16:58:48.219Z,78.40
2018-01-26T17:01:15.769Z,86.10
2018-01-26T17:03:43.323Z,89.35
2018-01-26T17:06:11.129Z,65.87
2018-01-26T17:08:38.852Z,76.43
2018-01-26T17:11:06.555Z,72.20
2018-01-26T17:13:35.150Z,91.53
2018-01-26T17:16:02.714Z,68.77
2018-01-26T17:18:30.304Z,58.03
2018-01-26T17:20:57.911Z,70.18
2018-01-26T17:23:25.502Z,96.67
2018-01-26T17:25:53.062Z,76.17
2018-01-26T17:28:20.699Z,63.85
2018-01-26T17:30:48.482Z,68.27
2018-01-26T17:33:16.063Z,83.67
2018-01-26T17:35:43.676Z,74.63
2018-01-26T17:38:11.248Z,84.23
2018-01-26T17:40:38.817Z,114.47
2018-01-26T17:43:06.407Z,78.93
2018-01-26T17:45:33.991Z,71.83
2018-01-26T17:48:02.561Z,74.17
2018-01-26T17:50:30.160Z,61.60
2018-01-26T17:52:57.878Z,89.20
2018-01-26T17:55:25.425Z,73.17
2018-01-26T17:57:53.053Z,59.50
2018-01-26T18:00:20.665Z,83.93
2018-01-26T18:02:48.239Z,81.00
2018-01-26T18:05:17.304Z,78.67
2018-01-26T18:07:44.882Z,64.67
2018-01-26T18:10:12.550Z,75.57
2018-01-26T18:12:40.363Z,62.83
2018-01-26T18:15:07.935Z,65.67
2018-01-26T18:17:35.512Z,65.43
2018-01-26T18:20:03.112Z,58.47
2018-01-26T18:22:30.713Z,67.00
2018-01-26T18:24:58.260Z,52.87
2018-01-26T18:27:25.855Z,60.20
2018-01-26T18:29:53.422Z,60.73
2018-01-26T18:32:21.007Z,66.90
2018-01-26T18:34:48.772Z,50.47
2018-01-26T18:37:16.342Z,55.13
2018-01-26T18:39:43.909Z,53.27
2018-01-26T18:42:11.689Z,56.67
2018-01-26T18:44:39.250Z,64.13
2018-01-26T18:47:06.881Z,67.27
2018-01-26T18:49:34.483Z,65.57
2018-01-26T18:52:02.055Z,60.60
2018-01-26T18:54:29.645Z,63.38
2018-01-26T18:56:57.321Z,71.63
2018-01-26T18:59:24.893Z,50.57
2018-01-26T19:01:52.450Z,61.80
2018-01-26T19:04:20.042Z,68.93
2018-01-26T19:06:47.628Z,60.00
2018-01-26T19:09:15.189Z,57.03
2018-01-26T19:11:42.796Z,65.53
2018-01-26T19:14:10.358Z,55.50
2018-01-26T19:16:37.928Z,51.23
2018-01-26T19:19:05.515Z,55.63
2018-01-26T19:21:33.099Z,46.10
2018-01-26T19:24:00.682Z,49.27
2018-01-26T19:26:33.799Z,51.90
2018-01-26T19:29:01.349Z,57.90
2018-01-26T19:31:28.911Z,56.47
2018-01-26T19:33:56.528Z,54.03
2018-01-26T19:36:24.092Z,54.60
2018-01-26T19:38:51.660Z,60.90
2018-01-26T19:41:19.291Z,54.03
2018-01-26T19:43:46.886Z,62.77
2018-01-26T19:46:14.443Z,66.47
2018-01-26T19:48:41.990Z,54.13
2018-01-26T19:51:09.661Z,68.03
2018-01-26T19:53:37.209Z,68.20
2018-01-26T19:56:04.771Z,90.10
2018-01-26T19:58:32.398Z,84.50
2018-01-26T20:00:59.979Z,75.87
2018-01-26T20:03:32.538Z,76.20
2018-01-26T20:06:05.788Z,69.97
2018-01-26T20:08:39.814Z,79.87
2018-01-26T20:11:07.402Z,65.33
2018-01-26T20:13:34.995Z,67.67
2018-01-26T20:16:02.795Z,77.57
2018-01-26T20:18:30.456Z,83.10
2018-01-26T20:20:58.039Z,83.33
2018-01-26T20:23:25.675Z,78.10
2018-01-26T20:25:53.235Z,86.60
2018-01-26T20:28:20.812Z,66.90
2018-01-26T20:30:48.431Z,74.70
2018-01-26T20:33:15.992Z,64.03
2018-01-26T20:35:43.611Z,71.27
2018-01-26T20:38:11.215Z,59.13
2018-01-26T20:40:38.996Z,76.83
2018-01-26T20:43:06.594Z,68.83
2018-01-26T20:45:34.197Z,78.67
2018-01-26T20:48:01.784Z,57.13
2018-01-26T20:50:29.454Z,57.20
2018-01-26T20:52:57.140Z,85.27
2018-01-26T20:55:24.704Z,86.70
2018-01-26T20:57:52.278Z,86.77
2018-01-26T21:00:19.878Z,90.00
2018-01-26T21:02:47.539Z,84.23
2018-01-26T21:05:15.112Z,67.03
2018-01-26T21:07:42.702Z,65.57
2018-01-26T21:10:13.415Z,73.00
2018-01-26T21:12:41.086Z,81.30
2018-01-26T21:15:08.691Z,65.30
2018-01-26T21:17:36.384Z,71.20
2018-01-26T21:20:03.939Z,94.70
2018-01-26T21:22:31.539Z,87.17
2018-01-26T21:24:59.730Z,79.00
2018-01-26T21:27:27.295Z,77.63
2018-01-26T21:29:54.905Z,73.10
2018-01-26T21:32:22.452Z,78.87
2018-01-26T21:34:50.225Z,74.33
2018-01-26T21:37:17.921Z,76.50
2018-01-26T21:39:46.406Z,80.33
2018-01-26T21:42:13.968Z,74.37
2018-01-26T21:44:41.602Z,96.90
2018-01-26T21:47:09.177Z,92.63
2018-01-26T21:49:36.865Z,99.20
2018-01-26T21:52:04.475Z,83.60
2018-01-26T21:54:32.060Z,80.70
2018-01-26T21:56:59.634Z,80.33
2018-01-26T21:59:27.246Z,76.77
2018-01-26T22:01:54.915Z,75.20
2018-01-26T22:04:22.527Z,88.33
2018-01-26T22:06:55.605Z,89.07
2018-01-26T22:09:23.262Z,91.00
2018-01-26T22:11:50.882Z,97.97
2018-01-26T22:14:18.480Z,97.20
2018-01-26T22:16:46.057Z,100.37
2018-01-26T22:19:13.614Z,93.03
2018-01-26T22:21:41.208Z,90.97
2018-01-26T22:24:08.778Z,109.77
2018-01-26T22:26:36.345Z,85.13
2018-01-26T22:29:03.965Z,82.27
2018-01-26T22:31:31.544Z,90.37
2018-01-26T22:33:59.349Z,89.70
2018-01-26T22:36:26.952Z,80.57
2018-01-26T22:38:54.531Z,74.20
2018-01-26T22:41:22.106Z,86.37
2018-01-26T22:43:49.904Z,77.97
2018-01-26T22:46:17.483Z,99.30
2018-01-26T22:48:45.040Z,77.87
2018-01-26T22:51:12.649Z,90.83
2018-01-26T22:53:40.209Z,70.13
2018-01-26T22:56:07.784Z,83.07
2018-01-26T22:58:35.391Z,78.23
2018-01-26T23:01:02.958Z,80.53
2018-01-26T23:03:30.539Z,74.47
2018-01-26T23:05:58.150Z,78.20
2018-01-26T23:08:25.903Z,70.30
2018-01-26T23:10:53.472Z,81.17
2018-01-26T23:13:21.062Z,72.97
2018-01-26T23:15:48.655Z,75.07
2018-01-26T23:18:16.218Z,86.30
2018-01-26T23:20:44.019Z,64.47
2018-01-26T23:23:11.571Z,63.83
2018-01-26T23:25:39.135Z,71.27
2018-01-26T23:28:06.743Z,70.73
2018-01-26T23:30:34.295Z,88.65
2018-01-26T23:33:01.857Z,83.67
2018-01-26T23:35:29.481Z,86.20
2018-01-26T23:37:57.098Z,74.50
2018-01-26T23:40:25.582Z,87.13
2018-01-26T23:42:53.182Z,87.40
2018-01-26T23:45:20.874Z,81.70
2018-01-26T23:47:48.481Z,72.73
2018-01-26T23:50:16.085Z,74.60
2018-01-26T23:52:43.697Z,82.80
2018-01-26T23:55:11.492Z,71.00
2018-01-26T23:57:39.098Z,77.43
